Time;durP1;ratioP1;P1;durP2;ratioP2;P2;SDS_P1;SDS_P2;PMS_P1;PMS_P2;Temp;Humidity;BMP_temperature;BMP_pressure;BME280_temperature;BME280_humidity;BME280_pressure;Samples;Min_cycle;Max_cycle;Signal;HPM_P1;HPM_P2
2022/04/10 00:02:27;;;;;;;3.88;0.88;;;;;;;;;;5086118;28;20491;-75
2022/04/10 00:04:58;;;;;;;5.35;1.00;;;;;;;;;;5068801;28;20044;-75
2022/04/10 00:07:27;;;;;;;7.45;1.00;;;;;;;;;;5086110;28;20044;-75
2022/04/10 00:09:57;;;;;;;7.53;1.15;;;;;;;;;;5086682;28;20044;-76
2022/04/10 00:12:27;;;;;;;6.38;1.05;;;;;;;;;;5084900;28;20511;-76
2022/04/10 00:14:57;;;;;;;7.38;1.25;;;;;;;;;;5086055;28;20044;-75
2022/04/10 00:17:27;;;;;;;6.25;0.98;;;;;;;;;;5086057;28;20051;-76
2022/04/10 00:19:57;;;;;;;3.92;0.70;;;;;;;;;;5089709;28;20400;-76
2022/04/10 00:22:27;;;;;;;3.55;1.02;;;;;;;;;;5090572;28;20044;-76
2022/04/10 00:24:57;;;;;;;6.60;1.25;;;;;;;;;;5090202;28;20101;-76
2022/04/10 00:27:27;;;;;;;7.40;2.97;;;;;;;;;;5090488;28;20058;-76
2022/04/10 00:29:58;;;;;;;8.68;1.00;;;;;;;;;;5090270;28;20048;-76
2022/04/10 00:32:28;;;;;;;3.50;0.90;;;;;;;;;;5090582;28;20044;-78
2022/04/10 00:34:58;;;;;;;6.68;1.25;;;;;;;;;;5070291;28;20313;-76
2022/04/10 00:37:28;;;;;;;6.53;1.23;;;;;;;;;;5090142;28;20051;-76
2022/04/10 00:39:59;;;;;;;4.47;0.80;;;;;;;;;;5090074;28;20048;-76
2022/04/10 00:42:34;;;;;;;2.97;0.90;;;;;;;;;;5089993;28;20075;-76
2022/04/10 00:45:06;;;;;;;8.27;1.20;;;;;;;;;;5089859;28;20131;-76
2022/04/10 00:47:36;;;;;;;11.52;1.05;;;;;;;;;;5088894;28;20063;-76
2022/04/10 00:50:08;;;;;;;4.50;0.88;;;;;;;;;;5089020;28;20070;-75
2022/04/10 00:52:40;;;;;;;10.80;1.40;;;;;;;;;;5089976;28;20051;-76
2022/04/10 00:55:11;;;;;;;5.47;1.17;;;;;;;;;;5072376;28;20048;-76
2022/04/10 00:57:43;;;;;;;;;;;;;;;;;;5071967;28;20062;-76
2022/04/10 01:00:14;;;;;;;7.82;2.00;;;;;;;;;;5089823;28;19920;-75
2022/04/10 01:02:44;;;;;;;7.00;0.98;;;;;;;;;;5070271;28;20048;-76
2022/04/10 01:05:15;;;;;;;;;;;;;;;;;;5070632;28;20068;-75
2022/04/10 01:07:46;;;;;;;8.68;1.63;;;;;;;;;;5089126;28;19924;-75
2022/04/10 01:10:16;;;;;;;10.80;0.90;;;;;;;;;;5089033;28;20032;-76
2022/04/10 01:12:46;;;;;;;3.03;1.10;;;;;;;;;;5071014;28;20059;-75
2022/04/10 01:15:23;;;;;;;9.90;1.40;;;;;;;;;;5071247;28;20533;-75
2022/04/10 01:17:56;;;;;;;5.45;1.10;;;;;;;;;;5070893;28;20511;-76
2022/04/10 01:20:28;;;;;;;7.88;1.10;;;;;;;;;;5053697;28;20063;-76
2022/04/10 01:23:03;;;;;;;6.45;1.00;;;;;;;;;;5069860;28;20047;-76
2022/04/10 01:25:34;;;;;;;7.95;1.15;;;;;;;;;;5089155;28;20050;-76
2022/04/10 01:28:15;;;;;;;4.43;1.08;;;;;;;;;;5054882;28;20040;-75
2022/04/10 01:30:45;;;;;;;3.10;0.80;;;;;;;;;;5069353;28;20557;-76
2022/04/10 01:33:14;;;;;;;7.00;1.35;;;;;;;;;;5089126;28;20052;-75
2022/04/10 01:35:44;;;;;;;4.82;1.10;;;;;;;;;;5069774;28;20415;-75
2022/04/10 01:38:18;;;;;;;3.88;0.80;;;;;;;;;;5069878;28;20062;-77
2022/04/10 01:40:52;;;;;;;5.68;0.93;;;;;;;;;;5070147;28;20052;-75
2022/04/10 01:43:22;;;;;;;7.55;1.00;;;;;;;;;;5089209;28;20047;-76
2022/04/10 01:45:55;;;;;;;10.95;1.48;;;;;;;;;;5070881;28;20052;-75
2022/04/10 01:48:25;;;;;;;7.15;1.83;;;;;;;;;;5070097;28;20055;-77
2022/04/10 01:50:55;;;;;;;3.80;1.55;;;;;;;;;;5068326;28;20056;-76
2022/04/10 01:53:26;;;;;;;7.93;2.20;;;;;;;;;;5067966;28;20074;-76
2022/04/10 01:55:57;;;;;;;5.75;1.02;;;;;;;;;;5069313;28;20040;-77
2022/04/10 01:58:27;;;;;;;6.82;1.05;;;;;;;;;;5069756;28;20044;-80
2022/04/10 02:00:57;;;;;;;5.80;1.20;;;;;;;;;;5069717;28;20055;-76
2022/04/10 02:03:27;;;;;;;4.82;1.20;;;;;;;;;;5069898;28;20048;-76
2022/04/10 02:06:00;;;;;;;5.50;1.10;;;;;;;;;;5069082;28;20048;-77
2022/04/10 02:08:31;;;;;;;6.43;1.00;;;;;;;;;;5070352;28;20052;-76
2022/04/10 02:11:10;;;;;;;3.58;0.80;;;;;;;;;;5068734;28;20044;-76
2022/04/10 02:13:42;;;;;;;2.65;0.90;;;;;;;;;;5064984;28;20059;-76
2022/04/10 02:16:17;;;;;;;10.38;1.17;;;;;;;;;;5065957;28;20052;-75
2022/04/10 02:18:49;;;;;;;5.35;0.85;;;;;;;;;;5050028;28;20553;-75
2022/04/10 02:21:19;;;;;;;4.45;0.95;;;;;;;;;;5088720;28;20047;-76
2022/04/10 02:23:49;;;;;;;7.05;1.20;;;;;;;;;;5069237;28;20415;-76
2022/04/10 02:26:19;;;;;;;8.80;1.00;;;;;;;;;;5069160;28;20067;-76
2022/04/10 02:28:49;;;;;;;6.10;0.95;;;;;;;;;;5068858;28;20063;-76
2022/04/10 02:31:19;;;;;;;7.88;2.75;;;;;;;;;;5087853;28;20400;-76
2022/04/10 02:33:50;;;;;;;7.93;3.15;;;;;;;;;;5068649;28;20426;-76
2022/04/10 02:36:22;;;;;;;5.88;1.70;;;;;;;;;;5069111;28;20063;-75
2022/04/10 02:38:52;;;;;;;8.32;2.08;;;;;;;;;;5069472;28;20051;-76
2022/04/10 02:41:23;;;;;;;4.32;1.17;;;;;;;;;;5068460;28;20396;-78
2022/04/10 02:43:55;;;;;;;8.68;1.10;;;;;;;;;;5068180;28;20056;-76
2022/04/10 02:46:26;;;;;;;6.70;1.10;;;;;;;;;;5069320;28;20537;-76
2022/04/10 02:48:57;;;;;;;7.85;1.45;;;;;;;;;;5068525;28;20059;-76
2022/04/10 02:51:27;;;;;;;;;;;;;;;;;;5068869;28;20051;-76
2022/04/10 02:53:58;;;;;;;4.10;1.08;;;;;;;;;;5069057;28;19924;-76
2022/04/10 02:56:29;;;;;;;6.40;1.75;;;;;;;;;;5087243;28;20059;-76
2022/04/10 02:58:58;;;;;;;7.35;1.95;;;;;;;;;;5068654;28;20052;-76
2022/04/10 03:01:28;;;;;;;4.78;2.10;;;;;;;;;;5067958;28;20422;-77
2022/04/10 03:03:59;;;;;;;6.57;2.00;;;;;;;;;;5069186;28;20071;-76
2022/04/10 03:06:28;;;;;;;7.68;1.65;;;;;;;;;;5067997;28;20048;-75
2022/04/10 03:08:58;;;;;;;11.68;1.65;;;;;;;;;;5069539;28;20052;-75
2022/04/10 03:11:28;;;;;;;9.45;1.35;;;;;;;;;;5087363;28;20521;-76
2022/04/10 03:13:59;;;;;;;2.80;0.77;;;;;;;;;;5067723;28;20052;-75
2022/04/10 03:16:29;;;;;;;3.75;1.25;;;;;;;;;;5068544;28;20052;-76
2022/04/10 03:18:59;;;;;;;4.50;1.17;;;;;;;;;;5068230;28;20059;-76
2022/04/10 03:21:30;;;;;;;5.20;1.10;;;;;;;;;;5068583;28;20048;-75
2022/04/10 03:24:01;;;;;;;4.95;0.90;;;;;;;;;;5068340;28;20055;-76
2022/04/10 03:26:31;;;;;;;5.13;0.95;;;;;;;;;;5068948;28;20056;-76
2022/04/10 03:29:02;;;;;;;6.32;0.95;;;;;;;;;;5068830;28;20074;-76
2022/04/10 03:31:31;;;;;;;8.68;1.30;;;;;;;;;;5087142;28;20047;-80
2022/04/10 03:34:02;;;;;;;5.22;1.15;;;;;;;;;;5086907;28;20483;-76
2022/04/10 03:36:32;;;;;;;7.63;1.27;;;;;;;;;;5068957;28;20052;-76
2022/04/10 03:39:02;;;;;;;3.65;1.13;;;;;;;;;;5087226;28;20406;-76
2022/04/10 03:41:32;;;;;;;9.05;1.48;;;;;;;;;;5067856;28;20055;-76
2022/04/10 03:44:02;;;;;;;3.72;0.93;;;;;;;;;;5067890;28;20533;-76
2022/04/10 03:46:32;;;;;;;2.53;0.90;;;;;;;;;;5051025;28;20491;-75
2022/04/10 03:49:02;;;;;;;6.22;1.10;;;;;;;;;;5067719;28;20083;-76
2022/04/10 03:51:32;;;;;;;4.10;0.90;;;;;;;;;;5087250;28;20047;-76
2022/04/10 03:54:02;;;;;;;5.10;0.93;;;;;;;;;;5067627;28;20059;-76
2022/04/10 03:56:32;;;;;;;2.63;1.05;;;;;;;;;;5051714;28;20427;-76
2022/04/10 03:59:02;;;;;;;8.13;1.10;;;;;;;;;;5086458;28;20055;-76
2022/04/10 04:01:32;;;;;;;4.60;1.20;;;;;;;;;;5067821;28;20056;-77
2022/04/10 04:04:02;;;;;;;2.78;0.80;;;;;;;;;;5067654;28;20044;-76
2022/04/10 04:06:32;;;;;;;6.72;0.93;;;;;;;;;;5086056;28;20044;-75
2022/04/10 04:09:02;;;;;;;7.25;1.13;;;;;;;;;;5068014;28;20515;-76
2022/04/10 04:11:33;;;;;;;6.72;0.98;;;;;;;;;;5067957;28;20066;-75
2022/04/10 04:14:04;;;;;;;4.07;0.70;;;;;;;;;;5067397;28;20052;-76
2022/04/10 04:16:34;;;;;;;3.50;0.93;;;;;;;;;;5067390;28;20055;-76
2022/04/10 04:19:04;;;;;;;6.78;1.15;;;;;;;;;;5087030;28;20044;-76
2022/04/10 04:21:34;;;;;;;4.13;0.85;;;;;;;;;;5085755;28;20048;-77
2022/04/10 04:24:04;;;;;;;2.35;0.70;;;;;;;;;;5068057;28;20056;-76
2022/04/10 04:26:35;;;;;;;9.23;0.90;;;;;;;;;;5067761;28;20079;-76
2022/04/10 04:29:09;;;;;;;4.95;1.10;;;;;;;;;;5067501;28;20411;-76
2022/04/10 04:31:39;;;;;;;3.33;1.23;;;;;;;;;;5067859;28;20075;-75
2022/04/10 04:34:12;;;;;;;7.20;1.08;;;;;;;;;;5067271;28;20058;-77
2022/04/10 04:36:43;;;;;;;4.68;0.70;;;;;;;;;;5067667;28;20048;-76
2022/04/10 04:39:14;;;;;;;1.58;0.73;;;;;;;;;;5067239;28;20052;-76
2022/04/10 04:41:50;;;;;;;12.65;1.15;;;;;;;;;;5067935;28;20063;-76
2022/04/10 04:44:20;;;;;;;3.47;1.10;;;;;;;;;;5068290;28;20052;-76
2022/04/10 04:46:51;;;;;;;6.43;0.97;;;;;;;;;;5068251;28;20074;-76
2022/04/10 04:49:21;;;;;;;8.13;1.13;;;;;;;;;;5067139;28;20040;-76
2022/04/10 04:51:50;;;;;;;9.07;0.93;;;;;;;;;;5051810;28;20605;-76
2022/04/10 04:54:21;;;;;;;8.52;0.80;;;;;;;;;;5082361;28;20059;-76
2022/04/10 04:56:51;;;;;;;6.05;0.80;;;;;;;;;;5091677;28;20049;-76
2022/04/10 04:59:24;;;;;;;9.68;1.30;;;;;;;;;;5091653;28;20055;-76
2022/04/10 05:01:56;;;;;;;10.02;1.40;;;;;;;;;;5091199;28;20063;-76
2022/04/10 05:04:27;;;;;;;6.70;1.43;;;;;;;;;;5091047;28;20063;-76
2022/04/10 05:06:58;;;;;;;14.68;1.67;;;;;;;;;;5088706;28;20282;-76
2022/04/10 05:09:29;;;;;;;6.27;1.93;;;;;;;;;;5070842;28;20055;-75
2022/04/10 05:11:59;;;;;;;15.40;2.00;;;;;;;;;;5071627;28;20060;-76
2022/04/10 05:14:30;;;;;;;8.00;1.35;;;;;;;;;;5070910;28;20052;-77
2022/04/10 05:17:00;;;;;;;4.60;1.20;;;;;;;;;;5070114;28;20510;-76
2022/04/10 05:19:33;;;;;;;11.38;1.55;;;;;;;;;;5070511;28;20059;-76
2022/04/10 05:22:03;;;;;;;6.28;1.52;;;;;;;;;;5070414;28;20411;-76
2022/04/10 05:24:35;;;;;;;6.57;0.90;;;;;;;;;;5070442;28;20052;-76
2022/04/10 05:27:06;;;;;;;11.68;1.20;;;;;;;;;;5070430;28;20052;-76
2022/04/10 05:29:37;;;;;;;8.05;1.00;;;;;;;;;;5069885;28;20056;-76
2022/04/10 05:32:08;;;;;;;8.30;1.50;;;;;;;;;;5070822;28;20506;-76
2022/04/10 05:34:39;;;;;;;10.10;1.10;;;;;;;;;;5066607;28;20053;-76
2022/04/10 05:37:10;;;;;;;10.55;1.42;;;;;;;;;;5067287;28;20057;-76
2022/04/10 05:39:47;;;;;;;3.78;0.90;;;;;;;;;;5066835;28;20056;-75
2022/04/10 05:42:17;;;;;;;7.95;1.55;;;;;;;;;;5066973;28;20082;-76
2022/04/10 05:44:48;;;;;;;11.15;1.20;;;;;;;;;;5066660;28;20071;-76
2022/04/10 05:47:19;;;;;;;6.18;1.23;;;;;;;;;;5066660;28;20040;-76
2022/04/10 05:49:49;;;;;;;4.20;1.10;;;;;;;;;;5067221;28;20052;-76
2022/04/10 05:52:19;;;;;;;5.70;0.93;;;;;;;;;;5066328;28;20040;-75
2022/04/10 05:54:50;;;;;;;4.22;0.85;;;;;;;;;;5066805;28;20475;-75
2022/04/10 05:57:20;;;;;;;7.22;1.02;;;;;;;;;;5066344;28;20508;-76
2022/04/10 05:59:52;;;;;;;4.82;1.02;;;;;;;;;;5066819;28;20060;-76
2022/04/10 06:02:23;;;;;;;13.18;1.20;;;;;;;;;;5066453;28;20435;-76
2022/04/10 06:04:53;;;;;;;5.03;1.23;;;;;;;;;;5068773;28;20075;-76
2022/04/10 06:07:26;;;;;;;4.22;1.00;;;;;;;;;;5050870;28;20052;-76
2022/04/10 06:09:56;;;;;;;2.90;1.00;;;;;;;;;;5066498;28;20102;-76
2022/04/10 06:12:27;;;;;;;12.15;1.20;;;;;;;;;;5066205;28;20048;-76
2022/04/10 06:14:58;;;;;;;4.38;0.70;;;;;;;;;;5066095;28;20060;-77
2022/04/10 06:17:28;;;;;;;4.13;0.77;;;;;;;;;;5065420;28;20049;-75
2022/04/10 06:19:59;;;;;;;6.07;0.70;;;;;;;;;;5066047;28;20432;-76
2022/04/10 06:22:33;;;;;;;7.97;0.90;;;;;;;;;;5065657;28;20048;-76
2022/04/10 06:25:05;;;;;;;3.38;0.43;;;;;;;;;;5066250;28;20052;-76
2022/04/10 06:27:35;;;;;;;1.85;0.70;;;;;;;;;;5066391;28;20049;-76
2022/04/10 06:30:06;;;;;;;8.77;0.80;;;;;;;;;;5065749;28;20071;-77
2022/04/10 06:32:41;;;;;;;8.35;0.80;;;;;;;;;;5065578;28;20059;-76
2022/04/10 06:35:11;;;;;;;7.15;0.70;;;;;;;;;;5087869;28;20044;-76
2022/04/10 06:37:43;;;;;;;9.80;0.80;;;;;;;;;;5068649;28;20518;-76
2022/04/10 06:40:13;;;;;;;7.95;0.80;;;;;;;;;;5068648;28;20059;-76
2022/04/10 06:42:43;;;;;;;5.32;0.77;;;;;;;;;;5069380;28;20055;-76
2022/04/10 06:45:36;;;;;;;8.18;0.60;;;;;;;;;;5077138;28;20056;-76
2022/04/10 06:48:18;;;;;;;8.18;0.85;;;;;;;;;;5068429;28;20052;-76
2022/04/10 06:50:49;;;;;;;5.95;0.80;;;;;;;;;;5068948;28;20048;-75
2022/04/10 06:53:26;;;;;;;5.35;0.77;;;;;;;;;;5068960;28;20055;-76
2022/04/10 06:55:58;;;;;;;1.75;0.73;;;;;;;;;;5068242;28;20118;-76
2022/04/10 06:58:34;;;;;;;3.17;0.80;;;;;;;;;;5068671;28;20079;-76
2022/04/10 07:01:04;;;;;;;4.40;0.70;;;;;;;;;;5087329;28;20043;-76
2022/04/10 07:03:36;;;;;;;9.20;0.93;;;;;;;;;;5069148;28;20055;-76
2022/04/10 07:06:09;;;;;;;4.55;0.90;;;;;;;;;;5068262;28;20060;-75
2022/04/10 07:08:40;;;;;;;5.68;0.85;;;;;;;;;;5087469;28;20047;-76
2022/04/10 07:11:12;;;;;;;4.93;0.82;;;;;;;;;;5068596;28;20052;-76
2022/04/10 07:13:42;;;;;;;3.38;0.85;;;;;;;;;;5068136;28;20410;-76
2022/04/10 07:16:14;;;;;;;7.50;0.70;;;;;;;;;;5067979;28;20423;-75
2022/04/10 07:18:45;;;;;;;3.03;0.60;;;;;;;;;;5068487;28;20052;-76
2022/04/10 07:23:41;;;;;;;3.60;0.70;;;;;;;;;;5068214;28;20406;-76
2022/04/10 07:24:09;;;;;;;9.02;1.00;;;;;;;;;;5068099;28;20670;-76
2022/04/10 07:26:45;;;;;;;2.05;0.60;;;;;;;;;;5068248;28;20056;-76
2022/04/10 07:29:19;;;;;;;6.10;0.73;;;;;;;;;;5067874;28;20052;-76
2022/04/10 07:31:50;;;;;;;7.60;0.60;;;;;;;;;;5068416;28;20052;-75
2022/04/10 07:34:20;;;;;;;5.68;0.85;;;;;;;;;;5067460;28;20052;-76
2022/04/10 07:36:59;;;;;;;5.35;0.65;;;;;;;;;;5091335;28;20062;-77
2022/04/10 07:39:35;;;;;;;11.65;0.65;;;;;;;;;;5067961;28;20942;-76
2022/04/10 07:42:14;;;;;;;3.63;0.60;;;;;;;;;;5052690;28;20052;-76
2022/04/10 07:45:06;;;;;;;3.78;0.50;;;;;;;;;;5067758;28;20060;-76
2022/04/10 07:47:57;;;;;;;0.40;0.40;;;;;;;;;;5069728;28;20059;-76
2022/04/10 07:50:31;;;;;;;14.00;0.80;;;;;;;;;;5068174;28;21346;-76
2022/04/10 07:53:02;;;;;;;4.30;1.02;;;;;;;;;;5067660;28;20073;-76
2022/04/10 07:55:36;;;;;;;6.03;0.77;;;;;;;;;;5067325;28;20060;-76
2022/04/10 07:58:09;;;;;;;7.85;1.10;;;;;;;;;;5068464;28;20056;-77
2022/04/10 08:00:40;;;;;;;5.63;1.27;;;;;;;;;;5067698;28;20064;-77
2022/04/10 08:03:11;;;;;;;7.25;1.52;;;;;;;;;;5086547;28;20407;-74
2022/04/10 08:05:48;;;;;;;5.70;1.58;;;;;;;;;;5091967;28;20410;-75
2022/04/10 08:08:40;;;;;;;10.40;1.58;;;;;;;;;;5068608;28;20510;-75
2022/04/10 08:11:10;;;;;;;11.82;1.45;;;;;;;;;;5086395;28;20419;-76
2022/04/10 08:13:41;;;;;;;11.23;2.08;;;;;;;;;;5086409;28;20051;-75
2022/04/10 08:16:14;;;;;;;3.90;1.60;;;;;;;;;;5086365;28;20044;-75
2022/04/10 08:18:44;;;;;;;14.73;1.67;;;;;;;;;;5085419;28;20415;-75
2022/04/10 08:21:14;;;;;;;7.85;1.60;;;;;;;;;;5086946;28;20051;-74
2022/04/10 08:23:43;;;;;;;55.95;3.78;;;;;;;;;;5085853;28;20043;-75
2022/04/10 08:26:13;;;;;;;46.58;1.95;;;;;;;;;;5085863;28;20048;-75
2022/04/10 08:28:43;;;;;;;24.83;2.13;;;;;;;;;;5085625;28;20408;-75
2022/04/10 08:31:13;;;;;;;18.20;1.50;;;;;;;;;;5086262;28;20063;-75
2022/04/10 08:33:43;;;;;;;44.33;2.08;;;;;;;;;;5086091;28;20286;-75
2022/04/10 08:36:13;;;;;;;39.65;3.15;;;;;;;;;;5086679;28;20056;-75
2022/04/10 08:38:43;;;;;;;144.57;5.88;;;;;;;;;;5085967;28;20044;-75
2022/04/10 08:41:14;;;;;;;386.85;10.50;;;;;;;;;;5089896;28;20062;-74
2022/04/10 08:43:45;;;;;;;464.03;10.67;;;;;;;;;;5089590;28;20051;-75
2022/04/10 08:46:19;;;;;;;308.67;7.70;;;;;;;;;;5089807;28;20414;-75
2022/04/10 08:48:49;;;;;;;356.05;10.98;;;;;;;;;;5089582;28;20040;-75
2022/04/10 08:51:20;;;;;;;67.05;2.20;;;;;;;;;;5090071;28;20040;-76
2022/04/10 08:53:51;;;;;;;114.50;3.20;;;;;;;;;;5089980;28;20044;-76
2022/04/10 08:56:22;;;;;;;21.55;1.23;;;;;;;;;;5089953;28;20078;-76
2022/04/10 08:58:52;;;;;;;172.32;3.80;;;;;;;;;;5089715;28;20044;-76
2022/04/10 09:01:22;;;;;;;358.30;9.23;;;;;;;;;;5071544;28;20055;-76
2022/04/10 09:03:52;;;;;;;337.75;8.27;;;;;;;;;;5089398;28;20067;-76
2022/04/10 09:06:22;;;;;;;266.30;6.40;;;;;;;;;;5089787;28;20047;-76
2022/04/10 09:09:09;;;;;;;215.85;4.50;;;;;;;;;;5089514;28;20059;-76
2022/04/10 09:11:40;;;;;;;296.50;6.13;;;;;;;;;;5072012;28;20051;-75
2022/04/10 09:14:10;;;;;;;205.40;5.50;;;;;;;;;;5089725;28;20047;-75
2022/04/10 09:16:40;;;;;;;213.10;4.35;;;;;;;;;;5071412;28;20052;-76
2022/04/10 09:19:10;;;;;;;156.32;3.78;;;;;;;;;;5089435;28;20043;-76
2022/04/10 09:21:43;;;;;;;61.30;1.80;;;;;;;;;;5089332;28;20040;-75
2022/04/10 09:24:15;;;;;;;149.18;2.83;;;;;;;;;;5089766;28;20048;-75
2022/04/10 09:26:50;;;;;;;74.72;2.35;;;;;;;;;;5091482;28;20052;-76
2022/04/10 09:29:23;;;;;;;129.35;3.35;;;;;;;;;;5089065;28;20048;-76
2022/04/10 09:31:57;;;;;;;37.05;2.38;;;;;;;;;;5089149;28;20048;-75
2022/04/10 09:34:31;;;;;;;40.92;1.35;;;;;;;;;;5069481;28;20051;-75
2022/04/10 09:37:21;;;;;;;58.50;1.70;;;;;;;;;;5089122;28;20039;-77
2022/04/10 09:39:53;;;;;;;164.18;3.75;;;;;;;;;;5088926;28;20645;-76
2022/04/10 09:42:32;;;;;;;177.98;6.68;;;;;;;;;;5088411;28;20055;-75
2022/04/10 09:45:40;;;;;;;41.03;1.50;;;;;;;;;;5088995;28;20059;-74
2022/04/10 09:48:24;;;;;;;127.28;3.05;;;;;;;;;;5089279;28;20495;-75
2022/04/10 09:50:58;;;;;;;120.20;3.88;;;;;;;;;;5088134;28;20052;-75
2022/04/10 09:53:30;;;;;;;67.78;1.80;;;;;;;;;;5088140;28;20044;-76
2022/04/10 09:56:05;;;;;;;33.15;1.52;;;;;;;;;;5087867;28;20056;-75
2022/04/10 09:58:36;;;;;;;26.38;1.17;;;;;;;;;;5088087;28;20036;-77
2022/04/10 10:01:11;;;;;;;28.70;1.17;;;;;;;;;;5088550;28;20048;-76
2022/04/10 10:03:42;;;;;;;20.05;1.10;;;;;;;;;;5070415;28;20048;-76
2022/04/10 10:06:12;;;;;;;11.07;0.88;;;;;;;;;;5088039;28;20048;-76
2022/04/10 10:08:42;;;;;;;80.45;2.88;;;;;;;;;;5070581;28;20043;-76
2022/04/10 10:11:13;;;;;;;32.53;1.50;;;;;;;;;;5088360;28;20040;-76
2022/04/10 10:13:44;;;;;;;3.25;1.00;;;;;;;;;;5088187;28;20047;-76
2022/04/10 10:16:16;;;;;;;2.53;0.85;;;;;;;;;;5087857;28;20059;-76
2022/04/10 10:18:46;;;;;;;1.58;0.90;;;;;;;;;;5087672;28;20040;-76
2022/04/10 10:21:17;;;;;;;12.73;1.08;;;;;;;;;;5087575;28;20055;-76
2022/04/10 10:23:52;;;;;;;34.67;3.03;;;;;;;;;;5069720;28;20048;-76
2022/04/10 10:26:46;;;;;;;179.27;6.05;;;;;;;;;;5087325;28;20047;-76
2022/04/10 10:29:35;;;;;;;47.90;1.75;;;;;;;;;;5087462;28;20044;-76
2022/04/10 10:32:14;;;;;;;146.05;3.85;;;;;;;;;;5087497;28;20406;-76
2022/04/10 10:34:45;;;;;;;100.25;2.22;;;;;;;;;;5070207;28;20056;-75
2022/04/10 10:37:15;;;;;;;;;;;;;;;;;;5087649;28;20398;-75
2022/04/10 10:39:50;;;;;;;257.55;5.95;;;;;;;;;;5087784;28;19928;-76
2022/04/10 10:42:22;;;;;;;191.45;4.95;;;;;;;;;;5087233;28;20036;-76
2022/04/10 10:44:52;;;;;;;132.65;3.00;;;;;;;;;;5087199;28;20055;-76
2022/04/10 10:47:25;;;;;;;131.00;2.85;;;;;;;;;;5087400;28;20040;-75
2022/04/10 10:49:55;;;;;;;223.80;5.15;;;;;;;;;;5087355;28;20519;-76
2022/04/10 10:52:28;;;;;;;83.22;3.53;;;;;;;;;;5087687;28;20040;-76
2022/04/10 10:54:59;;;;;;;15.10;2.38;;;;;;;;;;5087291;28;20395;-76
2022/04/10 10:57:42;;;;;;;248.13;6.75;;;;;;;;;;5087136;28;20048;-76
2022/04/10 11:00:19;;;;;;;43.47;2.08;;;;;;;;;;5087027;28;20507;-76
2022/04/10 11:02:52;;;;;;;159.13;2.95;;;;;;;;;;5085441;28;20067;-78
2022/04/10 11:05:30;;;;;;;199.55;4.18;;;;;;;;;;5087072;28;20075;-75
2022/04/10 11:08:16;;;;;;;172.23;5.93;;;;;;;;;;5086909;28;20048;-76
2022/04/10 11:11:03;;;;;;;214.77;5.70;;;;;;;;;;5086586;28;20803;-76
2022/04/10 11:13:46;;;;;;;56.38;1.48;;;;;;;;;;5086972;28;20118;-77
2022/04/10 11:16:16;;;;;;;46.95;1.70;;;;;;;;;;5068424;28;20060;-76
2022/04/10 11:18:56;;;;;;;77.23;1.67;;;;;;;;;;5086852;28;20051;-76
2022/04/10 11:21:27;;;;;;;42.25;1.52;;;;;;;;;;5086538;28;20367;-76
2022/04/10 11:23:58;;;;;;;;;;;;;;;;;;5087714;28;20044;-76
2022/04/10 11:26:36;;;;;;;51.15;1.70;;;;;;;;;;5086853;28;19927;-76
2022/04/10 11:29:08;;;;;;;147.30;4.38;;;;;;;;;;5086910;28;20478;-75
2022/04/10 11:31:47;;;;;;;165.13;4.05;;;;;;;;;;5086407;28;20044;-76
2022/04/10 11:34:22;;;;;;;181.88;5.28;;;;;;;;;;5086664;28;20059;-75
2022/04/10 11:36:56;;;;;;;80.03;3.00;;;;;;;;;;5086890;28;20051;-76
2022/04/10 11:39:29;;;;;;;101.88;3.28;;;;;;;;;;5067682;28;20052;-76
2022/04/10 11:42:01;;;;;;;62.53;2.45;;;;;;;;;;5086374;28;20514;-75
2022/04/10 11:44:32;;;;;;;4.32;0.95;;;;;;;;;;5085900;28;20063;-75
2022/04/10 11:47:09;;;;;;;6.28;1.00;;;;;;;;;;5086159;28;20395;-75
2022/04/10 11:49:39;;;;;;;28.10;1.60;;;;;;;;;;5068449;28;20056;-76
2022/04/10 11:52:09;;;;;;;16.27;1.20;;;;;;;;;;5086699;28;20048;-76
2022/04/10 11:54:38;;;;;;;27.38;1.80;;;;;;;;;;5086444;28;20044;-76
2022/04/10 11:57:09;;;;;;;22.40;1.33;;;;;;;;;;5085854;28;20044;-75
2022/04/10 11:59:42;;;;;;;3.70;1.10;;;;;;;;;;5086091;28;20419;-76
2022/04/10 12:02:14;;;;;;;4.90;1.05;;;;;;;;;;5086100;28;20055;-76
2022/04/10 12:04:49;;;;;;;7.43;1.23;;;;;;;;;;5086361;28;20056;-76
2022/04/10 12:07:22;;;;;;;1.95;1.33;;;;;;;;;;5068058;28;20054;-76
2022/04/10 12:09:53;;;;;;;5.28;1.20;;;;;;;;;;5067630;28;20116;-76
2022/04/10 12:12:38;;;;;;;2.17;1.40;;;;;;;;;;5086571;28;20494;-76
2022/04/10 12:15:19;;;;;;;3.70;1.50;;;;;;;;;;5088587;28;20044;-76
2022/04/10 12:17:49;;;;;;;;;;;;;;;;;;5090580;28;20040;-77
2022/04/10 12:20:37;;;;;;;4.30;1.33;;;;;;;;;;5089465;28;20279;-76
2022/04/10 12:23:24;;;;;;;2.53;1.30;;;;;;;;;;5072385;28;20047;-76
2022/04/10 12:25:58;;;;;;;1.65;1.08;;;;;;;;;;5071893;28;20051;-76
2022/04/10 12:28:30;;;;;;;1.30;0.80;;;;;;;;;;5089945;28;20052;-76
2022/04/10 12:31:01;;;;;;;4.75;1.23;;;;;;;;;;5090046;28;20503;-76
2022/04/10 12:33:33;;;;;;;0.98;0.65;;;;;;;;;;5088859;28;20499;-76
2022/04/10 12:36:20;;;;;;;0.77;0.43;;;;;;;;;;5088090;28;20040;-76
2022/04/10 12:38:52;;;;;;;0.30;0.30;;;;;;;;;;5090354;28;20044;-76
2022/04/10 12:41:26;;;;;;;6.40;0.70;;;;;;;;;;5090677;28;20048;-81
2022/04/10 12:44:24;;;;;;;8.90;0.70;;;;;;;;;;5089955;28;20043;-78
2022/04/10 12:46:54;;;;;;;5.68;0.70;;;;;;;;;;5089887;28;20051;-81
2022/04/10 12:49:24;;;;;;;1.90;0.40;;;;;;;;;;5088621;28;20058;-79
2022/04/10 12:55:39;;;;;;;1.98;0.80;;;;;;;;;;5085652;28;20062;-79
2022/04/10 12:58:09;;;;;;;5.37;0.70;;;;;;;;;;5070757;28;20422;-80
2022/04/10 13:00:47;;;;;;;2.50;0.73;;;;;;;;;;5089527;28;20052;-77
2022/04/10 13:03:28;;;;;;;2.45;0.63;;;;;;;;;;5070970;28;20430;-81
2022/04/10 13:05:58;;;;;;;1.52;0.40;;;;;;;;;;5089768;28;20048;-80
2022/04/10 13:08:35;;;;;;;6.70;0.55;;;;;;;;;;5089501;28;20404;-81
2022/04/10 13:11:11;;;;;;;3.90;0.77;;;;;;;;;;5088901;28;20052;-81
2022/04/10 13:14:03;;;;;;;2.55;0.52;;;;;;;;;;5088891;28;20506;-81
2022/04/10 13:16:35;;;;;;;6.85;0.75;;;;;;;;;;5089223;28;20499;-81
2022/04/10 13:19:10;;;;;;;4.97;0.70;;;;;;;;;;5088795;28;20048;-78
2022/04/10 13:21:42;;;;;;;1.67;0.65;;;;;;;;;;5089359;28;20036;-79
2022/04/10 13:24:14;;;;;;;0.93;0.30;;;;;;;;;;5089438;28;20043;-78
2022/04/10 13:26:46;;;;;;;3.85;1.02;;;;;;;;;;5087819;28;20391;-80
2022/04/10 13:29:17;;;;;;;4.32;0.60;;;;;;;;;;5089180;28;20048;-80
2022/04/10 13:31:47;;;;;;;2.63;0.35;;;;;;;;;;5089801;28;20055;-80
2022/04/10 13:34:17;;;;;;;1.25;0.50;;;;;;;;;;5089618;28;20056;-78
2022/04/10 13:36:47;;;;;;;3.17;0.32;;;;;;;;;;5088632;28;20052;-79
2022/04/10 13:39:17;;;;;;;5.63;1.45;;;;;;;;;;5089219;28;20107;-78
2022/04/10 13:41:48;;;;;;;6.15;0.90;;;;;;;;;;5088983;28;20040;-79
2022/04/10 13:44:18;;;;;;;0.40;0.40;;;;;;;;;;5088807;28;20055;-78
2022/04/10 13:46:48;;;;;;;1.40;0.47;;;;;;;;;;5070737;28;20418;-81
2022/04/10 13:49:17;;;;;;;1.00;0.50;;;;;;;;;;5088139;28;20044;-78
2022/04/10 13:51:47;;;;;;;0.67;0.40;;;;;;;;;;5071585;28;20098;-80
2022/04/10 13:54:18;;;;;;;0.82;0.60;;;;;;;;;;5088643;28;20052;-81
2022/04/10 13:56:47;;;;;;;0.77;0.40;;;;;;;;;;5070214;28;20056;-80
2022/04/10 13:59:18;;;;;;;2.80;0.60;;;;;;;;;;5071319;28;20059;-81
2022/04/10 14:01:47;;;;;;;2.42;1.00;;;;;;;;;;5070129;28;20054;-81
2022/04/10 14:04:17;;;;;;;1.63;0.60;;;;;;;;;;5088081;28;20052;-79
2022/04/10 14:06:47;;;;;;;4.57;0.60;;;;;;;;;;5088492;28;20059;-79
2022/04/10 14:09:18;;;;;;;10.98;0.70;;;;;;;;;;5088366;28;20290;-79
2022/04/10 14:11:47;;;;;;;9.03;1.63;;;;;;;;;;5070822;28;20044;-79
2022/04/10 14:14:17;;;;;;;2.47;0.68;;;;;;;;;;5087864;28;20290;-79
2022/04/10 14:16:47;;;;;;;1.67;0.70;;;;;;;;;;5088048;28;20052;-79
2022/04/10 14:19:17;;;;;;;0.60;0.43;;;;;;;;;;5087972;28;20055;-81
2022/04/10 14:21:47;;;;;;;1.13;0.53;;;;;;;;;;5070589;28;20067;-79
2022/04/10 14:24:17;;;;;;;3.60;1.27;;;;;;;;;;5088632;28;20044;-82
2022/04/10 14:26:47;;;;;;;3.55;1.40;;;;;;;;;;5085649;28;20526;-81
2022/04/10 14:29:17;;;;;;;3.10;0.68;;;;;;;;;;5074606;28;20056;-77
2022/04/10 14:31:47;;;;;;;13.50;8.13;;;;;;;;;;5095455;28;20514;-75
2022/04/10 14:34:19;;;;;;;2.63;0.47;;;;;;;;;;5094838;28;20063;-78
2022/04/10 14:36:49;;;;;;;0.77;0.40;;;;;;;;;;5078687;28;20526;-78
2022/04/10 14:39:19;;;;;;;3.20;0.70;;;;;;;;;;5097421;28;20052;-77
2022/04/10 14:41:49;;;;;;;4.60;1.67;;;;;;;;;;5087906;28;20853;-75
2022/04/10 14:44:36;;;;;;;3.85;0.63;;;;;;;;;;5166667;27;20213;-74
2022/04/10 14:47:07;;;;;;;1.33;0.70;;;;;;;;;;5146062;27;20439;-79
2022/04/10 14:49:37;;;;;;;7.72;4.15;;;;;;;;;;5128135;27;20053;-79
2022/04/10 14:52:09;;;;;;;3.70;2.00;;;;;;;;;;5145549;27;20042;-77
2022/04/10 14:54:40;;;;;;;2.58;0.60;;;;;;;;;;5127164;27;20065;-79
2022/04/10 14:57:09;;;;;;;2.40;0.55;;;;;;;;;;5127818;27;20508;-78
2022/04/10 14:59:39;;;;;;;5.93;0.73;;;;;;;;;;5144382;27;20054;-81
2022/04/10 15:02:10;;;;;;;1.65;0.40;;;;;;;;;;5127070;27;20046;-78
2022/04/10 15:04:41;;;;;;;2.55;0.50;;;;;;;;;;5145262;27;20741;-78
2022/04/10 15:07:12;;;;;;;3.97;0.50;;;;;;;;;;5145661;27;20529;-78
2022/04/10 15:09:49;;;;;;;2.88;0.57;;;;;;;;;;5144269;27;20054;-76
2022/04/10 15:12:20;;;;;;;1.73;0.55;;;;;;;;;;5145137;27;20047;-77
2022/04/10 15:14:52;;;;;;;6.13;0.40;;;;;;;;;;5144381;27;20389;-78
2022/04/10 15:17:22;;;;;;;2.67;0.68;;;;;;;;;;5145032;27;20299;-78